EZY7835 EHAM-EGPF
Flight info
| Callsign | EZY7835 |
|---|---|
| Flight time | 1h 6m |
| Altitude | 38000 |
| Route | BERGI L602 SUPUR P1 GODOS DCT ROXAT DCT BAZNA DCT ANMAZ DCT EWOKE DCT AGPED |
| Aircraft | A319/M-SDE3FGHIRWY/LB1 |
Departure
| Time | 2026-05-07 09:49 |
|---|---|
| Airport | Amsterdam Airport Schiphol (EHAM) |
Arrival
| Time | 2026-05-07 10:55 |
|---|---|
| Airport | Glasgow Airport (EGPF) |
| Time | Latitude | Longitude | Altitude | Speed | Heading |
|---|---|---|---|---|---|
| 2026-05-07 09:23 | 52.31045 | 4.75513 | -2 ft | 0 kts | 150° |
| 2026-05-07 09:34 | 52.31053 | 4.75506 | -2 ft | 4 kts | 150° |
| 2026-05-07 09:35 | 52.31074 | 4.75481 | -2 ft | 4 kts | 128° |
| 2026-05-07 09:35 | 52.31083 | 4.75447 | -2 ft | 4 kts | 72° |
| 2026-05-07 09:35 | 52.31080 | 4.75435 | -2 ft | 0 kts | 56° |
| 2026-05-07 09:38 | 52.31084 | 4.75444 | -2 ft | 3 kts | 56° |
| 2026-05-07 09:38 | 52.31091 | 4.75460 | -2 ft | 0 kts | 56° |
| 2026-05-07 09:39 | 52.31097 | 4.75475 | -2 ft | 3 kts | 52° |
| 2026-05-07 09:39 | 52.31119 | 4.75491 | -2 ft | 4 kts | 21° |
| 2026-05-07 09:39 | 52.31150 | 4.75496 | -2 ft | 5 kts | 355° |
| 2026-05-07 09:39 | 52.31191 | 4.75492 | -2 ft | 6 kts | 357° |
| 2026-05-07 09:40 | 52.31240 | 4.75487 | -2 ft | 8 kts | 355° |
| 2026-05-07 09:40 | 52.31299 | 4.75480 | -2 ft | 9 kts | 356° |
| 2026-05-07 09:40 | 52.31365 | 4.75472 | -2 ft | 8 kts | 356° |
| 2026-05-07 09:40 | 52.31425 | 4.75467 | -2 ft | 9 kts | 359° |
| 2026-05-07 09:41 | 52.31490 | 4.75461 | -2 ft | 8 kts | 343° |
| 2026-05-07 09:41 | 52.31511 | 4.75378 | -3 ft | 9 kts | 267° |
| 2026-05-07 09:41 | 52.31507 | 4.75269 | -3 ft | 10 kts | 266° |
| 2026-05-07 09:41 | 52.31503 | 4.75148 | -3 ft | 11 kts | 268° |
| 2026-05-07 09:42 | 52.31498 | 4.75018 | -2 ft | 12 kts | 266° |
| 2026-05-07 09:42 | 52.31493 | 4.74881 | -2 ft | 12 kts | 267° |
| 2026-05-07 09:42 | 52.31488 | 4.74740 | -2 ft | 13 kts | 267° |
| 2026-05-07 09:42 | 52.31483 | 4.74593 | -2 ft | 13 kts | 266° |
| 2026-05-07 09:43 | 52.31478 | 4.74439 | -2 ft | 14 kts | 266° |
| 2026-05-07 09:43 | 52.31473 | 4.74319 | -2 ft | 1 kts | 266° |
| 2026-05-07 09:43 | 52.31473 | 4.74298 | -2 ft | 2 kts | 266° |
| 2026-05-07 09:43 | 52.31469 | 4.74242 | -2 ft | 8 kts | 258° |
| 2026-05-07 09:44 | 52.31425 | 4.74158 | -2 ft | 10 kts | 210° |
| 2026-05-07 09:44 | 52.31353 | 4.74133 | -2 ft | 11 kts | 184° |
| 2026-05-07 09:44 | 52.31276 | 4.74125 | -2 ft | 11 kts | 182° |
| 2026-05-07 09:44 | 52.31199 | 4.74119 | -2 ft | 12 kts | 182° |
| 2026-05-07 09:45 | 52.31114 | 4.74111 | -2 ft | 13 kts | 183° |
| 2026-05-07 09:45 | 52.31030 | 4.74104 | -3 ft | 12 kts | 183° |
| 2026-05-07 09:45 | 52.30947 | 4.74095 | -2 ft | 10 kts | 183° |
| 2026-05-07 09:45 | 52.30873 | 4.74088 | -2 ft | 11 kts | 183° |
| 2026-05-07 09:46 | 52.30790 | 4.74081 | -2 ft | 13 kts | 183° |
| 2026-05-07 09:46 | 52.30700 | 4.74073 | -2 ft | 13 kts | 183° |
| 2026-05-07 09:46 | 52.30604 | 4.74064 | -2 ft | 14 kts | 183° |
| 2026-05-07 09:46 | 52.30502 | 4.74054 | -2 ft | 15 kts | 184° |
| 2026-05-07 09:47 | 52.30400 | 4.74044 | -2 ft | 13 kts | 184° |
| 2026-05-07 09:47 | 52.30308 | 4.74016 | -2 ft | 14 kts | 201° |
| 2026-05-07 09:47 | 52.30227 | 4.73924 | -3 ft | 14 kts | 218° |
| 2026-05-07 09:47 | 52.30187 | 4.73786 | -3 ft | 10 kts | 277° |
| 2026-05-07 09:48 | 52.30248 | 4.73737 | -6 ft | 13 kts | 7° |
| 2026-05-07 09:48 | 52.30419 | 4.73755 | -5 ft | 55 kts | 3° |
| 2026-05-07 09:48 | 52.31068 | 4.73811 | 1 ft | 129 kts | 3° |
| 2026-05-07 09:48 | 52.32119 | 4.73905 | 314 ft | 157 kts | 4° |
| 2026-05-07 09:49 | 52.33225 | 4.74013 | 1062 ft | 160 kts | 3° |
| 2026-05-07 09:49 | 52.34384 | 4.73744 | 1652 ft | 181 kts | 346° |
| 2026-05-07 09:49 | 52.35668 | 4.73139 | 2103 ft | 204 kts | 343° |
| 2026-05-07 09:49 | 52.37111 | 4.72417 | 2678 ft | 230 kts | 344° |
| 2026-05-07 09:50 | 52.38718 | 4.71592 | 3426 ft | 250 kts | 344° |
| 2026-05-07 09:50 | 52.40398 | 4.70727 | 4482 ft | 255 kts | 343° |
| 2026-05-07 09:50 | 52.42112 | 4.69867 | 5580 ft | 261 kts | 343° |
| 2026-05-07 09:50 | 52.43859 | 4.68916 | 6606 ft | 267 kts | 333° |
| 2026-05-07 09:51 | 52.45461 | 4.67314 | 7580 ft | 272 kts | 327° |
| 2026-05-07 09:51 | 52.47063 | 4.65618 | 8593 ft | 277 kts | 326° |
| 2026-05-07 09:51 | 52.48696 | 4.63887 | 9585 ft | 282 kts | 326° |
| 2026-05-07 09:51 | 52.50370 | 4.62110 | 10405 ft | 294 kts | 326° |
| 2026-05-07 09:52 | 52.52152 | 4.60221 | 10850 ft | 315 kts | 327° |
| 2026-05-07 09:52 | 52.54022 | 4.58236 | 11627 ft | 323 kts | 327° |
| 2026-05-07 09:52 | 52.55898 | 4.56177 | 12529 ft | 327 kts | 322° |
| 2026-05-07 09:52 | 52.57576 | 4.53618 | 13391 ft | 331 kts | 315° |
| 2026-05-07 09:53 | 52.59233 | 4.50962 | 14239 ft | 335 kts | 315° |
| 2026-05-07 09:53 | 52.60909 | 4.48267 | 15025 ft | 338 kts | 315° |
| 2026-05-07 09:53 | 52.62598 | 4.45545 | 15813 ft | 341 kts | 315° |
| 2026-05-07 09:53 | 52.64275 | 4.42839 | 16549 ft | 346 kts | 315° |
| 2026-05-07 09:54 | 52.66012 | 4.40037 | 17293 ft | 350 kts | 315° |
| 2026-05-07 09:54 | 52.67757 | 4.37220 | 18076 ft | 353 kts | 315° |
| 2026-05-07 09:54 | 52.69524 | 4.34359 | 18747 ft | 358 kts | 314° |
| 2026-05-07 09:54 | 52.71306 | 4.31470 | 19410 ft | 361 kts | 315° |
| 2026-05-07 09:55 | 52.72522 | 4.29499 | 19857 ft | 363 kts | 315° |
| 2026-05-07 09:55 | 52.74931 | 4.25588 | 20685 ft | 370 kts | 315° |
| 2026-05-07 09:55 | 52.76172 | 4.23571 | 21141 ft | 372 kts | 315° |
| 2026-05-07 09:55 | 52.78020 | 4.20564 | 21792 ft | 376 kts | 315° |
| 2026-05-07 09:56 | 52.79889 | 4.17520 | 22438 ft | 379 kts | 315° |
| 2026-05-07 09:56 | 52.81780 | 4.14435 | 23070 ft | 384 kts | 315° |
| 2026-05-07 09:56 | 52.83689 | 4.11314 | 23679 ft | 388 kts | 315° |
| 2026-05-07 09:56 | 52.85615 | 4.08162 | 24222 ft | 391 kts | 315° |
| 2026-05-07 09:57 | 52.87529 | 4.05028 | 24751 ft | 394 kts | 315° |
| 2026-05-07 09:57 | 52.89482 | 4.01824 | 25253 ft | 397 kts | 316° |
| 2026-05-07 09:57 | 52.91454 | 3.98585 | 25748 ft | 401 kts | 316° |
| 2026-05-07 09:57 | 52.93444 | 3.95318 | 26259 ft | 404 kts | 316° |
| 2026-05-07 09:58 | 52.95446 | 3.92030 | 26768 ft | 406 kts | 316° |
| 2026-05-07 09:58 | 52.97460 | 3.88720 | 27264 ft | 409 kts | 316° |
| 2026-05-07 09:58 | 52.99486 | 3.85378 | 27753 ft | 412 kts | 316° |
| 2026-05-07 09:58 | 53.01527 | 3.82002 | 28224 ft | 415 kts | 316° |
| 2026-05-07 09:59 | 53.03581 | 3.78598 | 28724 ft | 418 kts | 316° |
| 2026-05-07 09:59 | 53.05642 | 3.75176 | 29193 ft | 421 kts | 316° |
| 2026-05-07 09:59 | 53.07717 | 3.71725 | 29663 ft | 423 kts | 316° |
| 2026-05-07 09:59 | 53.09806 | 3.68249 | 30123 ft | 426 kts | 317° |
| 2026-05-07 10:00 | 53.11911 | 3.64748 | 30507 ft | 429 kts | 317° |
| 2026-05-07 10:00 | 53.14031 | 3.61216 | 30880 ft | 432 kts | 317° |
| 2026-05-07 10:00 | 53.16158 | 3.57667 | 31242 ft | 435 kts | 317° |
| 2026-05-07 10:00 | 53.18299 | 3.54087 | 31591 ft | 437 kts | 317° |
| 2026-05-07 10:01 | 53.20448 | 3.50478 | 31984 ft | 439 kts | 316° |
| 2026-05-07 10:01 | 53.22590 | 3.46869 | 32516 ft | 437 kts | 316° |
| 2026-05-07 10:01 | 53.24647 | 3.43225 | 33018 ft | 437 kts | 311° |
| 2026-05-07 10:01 | 53.26432 | 3.39020 | 33513 ft | 438 kts | 304° |
| 2026-05-07 10:02 | 53.28071 | 3.34737 | 34007 ft | 438 kts | 304° |
| 2026-05-07 10:02 | 53.29713 | 3.30456 | 34436 ft | 437 kts | 304° |
| 2026-05-07 10:02 | 53.31357 | 3.26177 | 34839 ft | 437 kts | 304° |
| 2026-05-07 10:02 | 53.32998 | 3.21904 | 35224 ft | 436 kts | 304° |
| 2026-05-07 10:03 | 53.34636 | 3.17634 | 35602 ft | 436 kts | 304° |
| 2026-05-07 10:03 | 53.36273 | 3.13369 | 35962 ft | 436 kts | 304° |
| 2026-05-07 10:03 | 53.37907 | 3.09098 | 36315 ft | 435 kts | 303° |
| 2026-05-07 10:03 | 53.39533 | 3.04826 | 36647 ft | 435 kts | 303° |
| 2026-05-07 10:04 | 53.41178 | 3.00570 | 36975 ft | 435 kts | 306° |
| 2026-05-07 10:04 | 53.43083 | 2.96645 | 37297 ft | 434 kts | 311° |
| 2026-05-07 10:04 | 53.45053 | 2.92821 | 37634 ft | 433 kts | 310° |
| 2026-05-07 10:04 | 53.47020 | 2.88990 | 37957 ft | 433 kts | 310° |
| 2026-05-07 10:05 | 53.48984 | 2.85153 | 38099 ft | 432 kts | 309° |
| 2026-05-07 10:05 | 53.52323 | 2.76823 | 38113 ft | 429 kts | 301° |
| 2026-05-07 10:06 | 53.55489 | 2.68315 | 38117 ft | 429 kts | 301° |
| 2026-05-07 10:06 | 53.58623 | 2.59850 | 38117 ft | 429 kts | 301° |
| 2026-05-07 10:07 | 53.61775 | 2.51303 | 38117 ft | 429 kts | 301° |
| 2026-05-07 10:07 | 53.64925 | 2.42753 | 38114 ft | 430 kts | 301° |
| 2026-05-07 10:08 | 53.68070 | 2.34180 | 38115 ft | 430 kts | 301° |
| 2026-05-07 10:08 | 53.71207 | 2.25600 | 38117 ft | 430 kts | 301° |
| 2026-05-07 10:09 | 53.74355 | 2.16946 | 38128 ft | 430 kts | 301° |
| 2026-05-07 10:09 | 53.77480 | 2.08336 | 38136 ft | 429 kts | 301° |
| 2026-05-07 10:10 | 53.80601 | 1.99723 | 38135 ft | 430 kts | 300° |
| 2026-05-07 10:10 | 53.83712 | 1.91090 | 38136 ft | 430 kts | 301° |
| 2026-05-07 10:11 | 53.86819 | 1.82431 | 38134 ft | 430 kts | 301° |
| 2026-05-07 10:11 | 53.89905 | 1.73809 | 38136 ft | 431 kts | 301° |
| 2026-05-07 10:12 | 53.93003 | 1.65117 | 38140 ft | 430 kts | 301° |
| 2026-05-07 10:12 | 53.96115 | 1.56365 | 38142 ft | 430 kts | 300° |
| 2026-05-07 10:13 | 53.99202 | 1.47645 | 38137 ft | 430 kts | 300° |
| 2026-05-07 10:13 | 54.02287 | 1.38917 | 38134 ft | 430 kts | 300° |
| 2026-05-07 10:14 | 54.05361 | 1.30172 | 38133 ft | 430 kts | 300° |
| 2026-05-07 10:14 | 54.08429 | 1.21421 | 38130 ft | 430 kts | 300° |
| 2026-05-07 10:15 | 54.11491 | 1.12661 | 38126 ft | 430 kts | 298° |
| 2026-05-07 10:15 | 54.14541 | 1.03872 | 38133 ft | 430 kts | 299° |
| 2026-05-07 10:16 | 54.17564 | 0.95140 | 38130 ft | 430 kts | 299° |
| 2026-05-07 10:16 | 54.20612 | 0.86334 | 38132 ft | 430 kts | 299° |
| 2026-05-07 10:17 | 54.23652 | 0.77522 | 38126 ft | 430 kts | 299° |
| 2026-05-07 10:17 | 54.26681 | 0.68694 | 38135 ft | 430 kts | 298° |
| 2026-05-07 10:18 | 54.29698 | 0.59854 | 38137 ft | 430 kts | 298° |
| 2026-05-07 10:18 | 54.32708 | 0.51005 | 38137 ft | 430 kts | 298° |
| 2026-05-07 10:19 | 54.35707 | 0.42147 | 38121 ft | 430 kts | 298° |
| 2026-05-07 10:19 | 54.38710 | 0.33266 | 38119 ft | 430 kts | 299° |
| 2026-05-07 10:20 | 54.41706 | 0.24379 | 38125 ft | 430 kts | 298° |
| 2026-05-07 10:20 | 54.44697 | 0.15478 | 38119 ft | 430 kts | 298° |
| 2026-05-07 10:21 | 54.47680 | 0.06553 | 38115 ft | 430 kts | 298° |
| 2026-05-07 10:21 | 54.50656 | -0.02374 | 38133 ft | 430 kts | 298° |
| 2026-05-07 10:22 | 54.53628 | -0.11309 | 38118 ft | 430 kts | 298° |
| 2026-05-07 10:22 | 54.56587 | -0.20258 | 38119 ft | 429 kts | 298° |
| 2026-05-07 10:23 | 54.59530 | -0.29202 | 38111 ft | 429 kts | 298° |
| 2026-05-07 10:23 | 54.62461 | -0.38150 | 38109 ft | 428 kts | 301° |
| 2026-05-07 10:24 | 54.65391 | -0.47089 | 37952 ft | 429 kts | 298° |
| 2026-05-07 10:24 | 54.66857 | -0.51571 | 37665 ft | 427 kts | 298° |
| 2026-05-07 10:24 | 54.68321 | -0.56069 | 37394 ft | 435 kts | 298° |
| 2026-05-07 10:24 | 54.69809 | -0.60669 | 37123 ft | 441 kts | 297° |
| 2026-05-07 10:25 | 54.71303 | -0.65309 | 36852 ft | 442 kts | 297° |
| 2026-05-07 10:25 | 54.72788 | -0.69900 | 36590 ft | 443 kts | 298° |
| 2026-05-07 10:25 | 54.74294 | -0.74549 | 36326 ft | 443 kts | 298° |
| 2026-05-07 10:25 | 54.75798 | -0.79194 | 36073 ft | 442 kts | 298° |
| 2026-05-07 10:26 | 54.77297 | -0.83841 | 35812 ft | 442 kts | 298° |
| 2026-05-07 10:26 | 54.78789 | -0.88481 | 35549 ft | 439 kts | 298° |
| 2026-05-07 10:26 | 54.80270 | -0.93095 | 35304 ft | 437 kts | 298° |
| 2026-05-07 10:26 | 54.81745 | -0.97703 | 35085 ft | 437 kts | 299° |
| 2026-05-07 10:27 | 54.83222 | -1.02323 | 34862 ft | 440 kts | 298° |
| 2026-05-07 10:27 | 54.84701 | -1.06966 | 34618 ft | 440 kts | 298° |
| 2026-05-07 10:27 | 54.86177 | -1.11624 | 34365 ft | 440 kts | 298° |
| 2026-05-07 10:27 | 54.87648 | -1.16265 | 34127 ft | 439 kts | 297° |
| 2026-05-07 10:28 | 54.89120 | -1.20909 | 33858 ft | 438 kts | 298° |
| 2026-05-07 10:28 | 54.90597 | -1.25560 | 33496 ft | 441 kts | 298° |
| 2026-05-07 10:28 | 54.92074 | -1.30226 | 32958 ft | 441 kts | 298° |
| 2026-05-07 10:28 | 54.93555 | -1.34918 | 32426 ft | 442 kts | 298° |
| 2026-05-07 10:29 | 54.95035 | -1.39621 | 31889 ft | 444 kts | 298° |
| 2026-05-07 10:29 | 54.96514 | -1.44336 | 31375 ft | 446 kts | 298° |
| 2026-05-07 10:29 | 54.98000 | -1.49085 | 30849 ft | 447 kts | 298° |
| 2026-05-07 10:30 | 55.00975 | -1.58613 | 29793 ft | 447 kts | 297° |
| 2026-05-07 10:30 | 55.02450 | -1.63356 | 29304 ft | 444 kts | 297° |
| 2026-05-07 10:30 | 55.03917 | -1.68075 | 28821 ft | 439 kts | 297° |
| 2026-05-07 10:30 | 55.05347 | -1.72676 | 28596 ft | 422 kts | 297° |
| 2026-05-07 10:31 | 55.06723 | -1.77115 | 28201 ft | 412 kts | 297° |
| 2026-05-07 10:31 | 55.08068 | -1.81472 | 27643 ft | 406 kts | 297° |
| 2026-05-07 10:31 | 55.09401 | -1.85790 | 27014 ft | 403 kts | 297° |
| 2026-05-07 10:31 | 55.10723 | -1.90083 | 26530 ft | 400 kts | 297° |
| 2026-05-07 10:32 | 55.12032 | -1.94346 | 26118 ft | 397 kts | 297° |
| 2026-05-07 10:32 | 55.13354 | -1.98577 | 25985 ft | 396 kts | 298° |
| 2026-05-07 10:32 | 55.14717 | -2.02761 | 26015 ft | 397 kts | 298° |
| 2026-05-07 10:32 | 55.16110 | -2.06936 | 26013 ft | 397 kts | 299° |
| 2026-05-07 10:33 | 55.17508 | -2.11102 | 26013 ft | 397 kts | 299° |
| 2026-05-07 10:33 | 55.18902 | -2.15274 | 26011 ft | 397 kts | 299° |
| 2026-05-07 10:33 | 55.20270 | -2.19403 | 26011 ft | 397 kts | 298° |
| 2026-05-07 10:33 | 55.21650 | -2.23599 | 26004 ft | 398 kts | 298° |
| 2026-05-07 10:34 | 55.23028 | -2.27812 | 25985 ft | 398 kts | 298° |
| 2026-05-07 10:34 | 55.24391 | -2.31999 | 25547 ft | 394 kts | 297° |
| 2026-05-07 10:34 | 55.25707 | -2.36235 | 24748 ft | 396 kts | 296° |
| 2026-05-07 10:34 | 55.26956 | -2.40474 | 24393 ft | 387 kts | 295° |
| 2026-05-07 10:35 | 55.28155 | -2.44674 | 23913 ft | 383 kts | 294° |
| 2026-05-07 10:35 | 55.29333 | -2.48845 | 23414 ft | 380 kts | 294° |
| 2026-05-07 10:35 | 55.30502 | -2.52981 | 22883 ft | 377 kts | 294° |
| 2026-05-07 10:35 | 55.31668 | -2.57081 | 22370 ft | 374 kts | 295° |
| 2026-05-07 10:36 | 55.32833 | -2.61140 | 21871 ft | 371 kts | 295° |
| 2026-05-07 10:36 | 55.33996 | -2.65166 | 21371 ft | 368 kts | 295° |
| 2026-05-07 10:36 | 55.34759 | -2.67813 | 21044 ft | 366 kts | 295° |
| 2026-05-07 10:36 | 55.35905 | -2.71783 | 20552 ft | 362 kts | 295° |
| 2026-05-07 10:37 | 55.37038 | -2.75720 | 20061 ft | 360 kts | 295° |
| 2026-05-07 10:37 | 55.38163 | -2.79635 | 19568 ft | 357 kts | 294° |
| 2026-05-07 10:37 | 55.39274 | -2.83516 | 19096 ft | 354 kts | 294° |
| 2026-05-07 10:37 | 55.40375 | -2.87377 | 18626 ft | 351 kts | 294° |
| 2026-05-07 10:38 | 55.41464 | -2.91206 | 18143 ft | 349 kts | 294° |
| 2026-05-07 10:38 | 55.42543 | -2.95009 | 17608 ft | 346 kts | 294° |
| 2026-05-07 10:38 | 55.43615 | -2.98788 | 17064 ft | 344 kts | 294° |
| 2026-05-07 10:38 | 55.44681 | -3.02550 | 16564 ft | 342 kts | 294° |
| 2026-05-07 10:39 | 55.45737 | -3.06282 | 16063 ft | 340 kts | 294° |
| 2026-05-07 10:39 | 55.46788 | -3.10001 | 15570 ft | 338 kts | 293° |
| 2026-05-07 10:39 | 55.47829 | -3.13698 | 15093 ft | 336 kts | 293° |
| 2026-05-07 10:39 | 55.48865 | -3.17380 | 14631 ft | 334 kts | 293° |
| 2026-05-07 10:40 | 55.49895 | -3.21042 | 14160 ft | 333 kts | 293° |
| 2026-05-07 10:40 | 55.50921 | -3.24690 | 13706 ft | 331 kts | 293° |
| 2026-05-07 10:40 | 55.51940 | -3.28325 | 13174 ft | 329 kts | 293° |
| 2026-05-07 10:40 | 55.52954 | -3.31946 | 12641 ft | 328 kts | 293° |
| 2026-05-07 10:41 | 55.53959 | -3.35542 | 12202 ft | 325 kts | 292° |
| 2026-05-07 10:41 | 55.54950 | -3.39092 | 11794 ft | 320 kts | 292° |
| 2026-05-07 10:41 | 55.55928 | -3.42608 | 11317 ft | 318 kts | 292° |
| 2026-05-07 10:41 | 55.56900 | -3.46108 | 11041 ft | 317 kts | 292° |
| 2026-05-07 10:42 | 55.57868 | -3.49597 | 10795 ft | 316 kts | 292° |
| 2026-05-07 10:42 | 55.58829 | -3.53069 | 10540 ft | 311 kts | 292° |
| 2026-05-07 10:42 | 55.59768 | -3.56456 | 10287 ft | 302 kts | 292° |
| 2026-05-07 10:42 | 55.60676 | -3.59742 | 10039 ft | 293 kts | 292° |
| 2026-05-07 10:43 | 55.61557 | -3.62924 | 9855 ft | 283 kts | 292° |
| 2026-05-07 10:43 | 55.62416 | -3.66027 | 9689 ft | 279 kts | 292° |
| 2026-05-07 10:43 | 55.63263 | -3.69097 | 9344 ft | 276 kts | 292° |
| 2026-05-07 10:43 | 55.64101 | -3.72146 | 8964 ft | 275 kts | 292° |
| 2026-05-07 10:44 | 55.64933 | -3.75177 | 8579 ft | 273 kts | 292° |
| 2026-05-07 10:44 | 55.65765 | -3.78200 | 8195 ft | 272 kts | 292° |
| 2026-05-07 10:44 | 55.66597 | -3.81183 | 7961 ft | 270 kts | 292° |
| 2026-05-07 10:44 | 55.67426 | -3.84175 | 7963 ft | 271 kts | 292° |
| 2026-05-07 10:45 | 55.68257 | -3.87179 | 7968 ft | 272 kts | 292° |
| 2026-05-07 10:45 | 55.69092 | -3.90190 | 7966 ft | 272 kts | 292° |
| 2026-05-07 10:45 | 55.69937 | -3.93186 | 7977 ft | 273 kts | 293° |
| 2026-05-07 10:45 | 55.70640 | -3.96268 | 7972 ft | 268 kts | 281° |
| 2026-05-07 10:46 | 55.71118 | -3.99456 | 7969 ft | 267 kts | 279° |
| 2026-05-07 10:46 | 55.71801 | -4.02489 | 7970 ft | 275 kts | 299° |
| 2026-05-07 10:46 | 55.73215 | -4.04823 | 7741 ft | 283 kts | 326° |
| 2026-05-07 10:46 | 55.75093 | -4.05816 | 7476 ft | 284 kts | 350° |
| 2026-05-07 10:47 | 55.77052 | -4.06056 | 7117 ft | 282 kts | 354° |
| 2026-05-07 10:47 | 55.79007 | -4.06214 | 6746 ft | 280 kts | 354° |
| 2026-05-07 10:47 | 55.80951 | -4.06357 | 6340 ft | 279 kts | 354° |
| 2026-05-07 10:47 | 55.82875 | -4.06495 | 6040 ft | 274 kts | 354° |
| 2026-05-07 10:48 | 55.84774 | -4.06621 | 5680 ft | 272 kts | 354° |
| 2026-05-07 10:48 | 55.86661 | -4.06740 | 5285 ft | 271 kts | 354° |
| 2026-05-07 10:48 | 55.88548 | -4.06858 | 4807 ft | 273 kts | 354° |
| 2026-05-07 10:48 | 55.90449 | -4.06977 | 4351 ft | 273 kts | 354° |
| 2026-05-07 10:49 | 55.92339 | -4.07152 | 3929 ft | 270 kts | 348° |
| 2026-05-07 10:49 | 55.94016 | -4.08352 | 3628 ft | 252 kts | 316° |
| 2026-05-07 10:49 | 55.95030 | -4.10664 | 3504 ft | 227 kts | 289° |
| 2026-05-07 10:49 | 55.95623 | -4.13158 | 3485 ft | 210 kts | 285° |
| 2026-05-07 10:50 | 55.96152 | -4.15537 | 3360 ft | 203 kts | 284° |
| 2026-05-07 10:50 | 55.96662 | -4.17819 | 3268 ft | 191 kts | 284° |
| 2026-05-07 10:50 | 55.96862 | -4.20024 | 3091 ft | 174 kts | 263° |
| 2026-05-07 10:50 | 55.96807 | -4.22155 | 2751 ft | 169 kts | 259° |
| 2026-05-07 10:51 | 55.96726 | -4.24257 | 2345 ft | 168 kts | 255° |
| 2026-05-07 10:51 | 55.96314 | -4.26123 | 2021 ft | 158 kts | 230° |
| 2026-05-07 10:51 | 55.95580 | -4.27575 | 2014 ft | 159 kts | 222° |
| 2026-05-07 10:51 | 55.94818 | -4.29013 | 2009 ft | 160 kts | 223° |
| 2026-05-07 10:52 | 55.94069 | -4.30427 | 1867 ft | 153 kts | 223° |
| 2026-05-07 10:52 | 55.93356 | -4.31770 | 1693 ft | 148 kts | 222° |
| 2026-05-07 10:52 | 55.92657 | -4.33083 | 1494 ft | 148 kts | 222° |
| 2026-05-07 10:52 | 55.91941 | -4.34429 | 1271 ft | 148 kts | 223° |
| 2026-05-07 10:53 | 55.91247 | -4.35739 | 1048 ft | 140 kts | 222° |
| 2026-05-07 10:53 | 55.90612 | -4.36935 | 832 ft | 126 kts | 222° |
| 2026-05-07 10:53 | 55.90031 | -4.38023 | 681 ft | 119 kts | 220° |
| 2026-05-07 10:53 | 55.89466 | -4.39075 | 536 ft | 117 kts | 221° |
| 2026-05-07 10:54 | 55.88903 | -4.40128 | 365 ft | 116 kts | 223° |
| 2026-05-07 10:54 | 55.88347 | -4.41180 | 225 ft | 117 kts | 219° |
| 2026-05-07 10:54 | 55.87789 | -4.42225 | 66 ft | 116 kts | 219° |
| 2026-05-07 10:54 | 55.87278 | -4.43163 | 29 ft | 85 kts | 226° |
| 2026-05-07 10:55 | 55.87070 | -4.43551 | 29 ft | 18 kts | 216° |
| 2026-05-07 10:55 | 55.86955 | -4.43667 | 29 ft | 18 kts | 203° |
| 2026-05-07 10:55 | 55.86840 | -4.43740 | 29 ft | 16 kts | 200° |
| 2026-05-07 10:55 | 55.86799 | -4.43766 | 29 ft | 3 kts | 199° |
| 2026-05-07 10:56 | 55.86783 | -4.43775 | 29 ft | 1 kts | 198° |
| 2026-05-07 10:56 | 55.86779 | -4.43778 | 29 ft | 1 kts | 198° |
| 2026-05-07 10:56 | 55.86765 | -4.43775 | 29 ft | 4 kts | 163° |
| 2026-05-07 10:56 | 55.86736 | -4.43718 | 29 ft | 8 kts | 99° |
| 2026-05-07 10:57 | 55.86751 | -4.43614 | 29 ft | 9 kts | 70° |
| 2026-05-07 10:57 | 55.86770 | -4.43516 | 29 ft | 8 kts | 74° |
| 2026-05-07 10:57 | 55.86786 | -4.43410 | 29 ft | 10 kts | 74° |
| 2026-05-07 10:57 | 55.86809 | -4.43275 | 29 ft | 12 kts | 73° |
| 2026-05-07 10:58 | 55.86830 | -4.43139 | 29 ft | 10 kts | 74° |
| 2026-05-07 10:58 | 55.86833 | -4.43024 | 29 ft | 8 kts | 126° |
| 2026-05-07 10:58 | 55.86789 | -4.42993 | 29 ft | 6 kts | 166° |
| 2026-05-07 10:58 | 55.86754 | -4.42976 | 29 ft | 5 kts | 163° |
| 2026-05-07 10:59 | 55.86719 | -4.42957 | 29 ft | 6 kts | 163° |
| 2026-05-07 10:59 | 55.86679 | -4.42937 | 29 ft | 6 kts | 164° |
| 2026-05-07 10:59 | 55.86649 | -4.42923 | 29 ft | 0 kts | 175° |
| 2026-05-07 10:59 | 55.86643 | -4.42935 | 29 ft | 1 kts | 233° |
| 2026-05-07 11:00 | 55.86641 | -4.42957 | 29 ft | 1 kts | 254° |
| 2026-05-07 11:00 | 55.86638 | -4.42975 | 29 ft | 2 kts | 253° |
| 2026-05-07 11:00 | 55.86635 | -4.42994 | 29 ft | 2 kts | 253° |
| 2026-05-07 11:00 | 55.86632 | -4.43010 | 29 ft | 0 kts | 254° |